^^
Station Historical Data
 
Daily Summary for May 21, 2018 Units:  Metric    English   Both
« Previous Day
Next Day »
Daily Weekly Monthly Yearly Custom
  Current: High: Low: Average:
Temperature: 8.6 °C -17.8 °C 7.8 °C 8.8 °C
Dew Point: 7.8 °C -17.8 °C 6.9 °C 7.7 °C
Humidity: 95% Humidity% 87% 92%
Wind Speed: 0km/h 0km/h 0km/h 0km/h
Wind Gust: 0km/h 0km/h - -
WindCalm - - North
Pressure: 1018.8 hPa 0 hPa 1016.8 hPa -
Precipitation: 0 mm      
Historical Graphs
 
 
Tabular Data for May 21, 2018
Time Temperature Dew Point Pressure Wind Wind Speed Wind Gust Humidity Rainfall Rate (Hourly) solar Conditions
-17.8 °C -17.8 °C 0 hPa Calm     Humidity% 0 mm SolarRadiationWatts/m^2 W/m2 Conditions
00:06 11.3 °C 9.2 °C 1017.8 hPa Calm     87% 0 mm 0.0 W/m2
00:13 11.1 °C 9.2 °C 1017.8 hPa Calm     88% 0 mm 0.0 W/m2
00:19 11.1 °C 9.4 °C 1017.8 hPa Calm     89% 0 mm 0.0 W/m2
00:26 10.9 °C 9 °C 1017.8 hPa Calm     88% 0 mm 0.0 W/m2
00:32 10.8 °C 9.1 °C 1017.8 hPa Calm     89% 0 mm 0.0 W/m2
00:39 10.7 °C 9 °C 1017.5 hPa Calm     89% 0 mm 0.0 W/m2
00:45 10.6 °C 9 °C 1017.5 hPa Calm     90% 0 mm 0.0 W/m2
00:52 10.6 °C 9 °C 1017.5 hPa Calm     90% 0 mm 0.0 W/m2
00:59 10.4 °C 8.8 °C 1017.5 hPa Calm     90% 0 mm 0.0 W/m2
01:05 10.3 °C 8.7 °C 1017.5 hPa Calm     90% 0 mm 0.0 W/m2
01:12 10.2 °C 8.8 °C 1017.5 hPa Calm     91% 0 mm 0.0 W/m2
01:19 10.2 °C 8.8 °C 1017.5 hPa Calm     91% 0 mm 0.0 W/m2
01:25 10.1 °C 8.7 °C 1017.2 hPa Calm     91% 0 mm 0.0 W/m2
01:32 10 °C 8.6 °C 1017.2 hPa Calm     91% 0 mm 0.0 W/m2
01:38 9.9 °C 8.5 °C 1017.2 hPa Calm     91% 0 mm 0.0 W/m2
01:45 9.9 °C 8.7 °C 1017.2 hPa Calm     92% 0 mm 0.0 W/m2
01:51 9.8 °C 8.4 °C 1017.2 hPa Calm     91% 0 mm 0.0 W/m2
01:58 9.7 °C 8.3 °C 1017.5 hPa Calm     91% 0 mm 0.0 W/m2
02:05 9.6 °C 8.4 °C 1017.2 hPa Calm     92% 0 mm 0.0 W/m2
02:11 9.7 °C 8.5 °C 1017.2 hPa Calm     92% 0 mm 0.0 W/m2
02:18 9.7 °C 8.6 °C 1017.5 hPa Calm     93% 0 mm 0.0 W/m2
02:24 9.6 °C 8.4 °C 1017.5 hPa Calm     92% 0 mm 0.0 W/m2
02:31 9.6 °C 8.4 °C 1017.5 hPa Calm     92% 0 mm 0.0 W/m2
02:37 9.5 °C 8.4 °C 1017.5 hPa Calm     93% 0 mm 0.0 W/m2
02:43 9.6 °C 8.5 °C 1017.5 hPa Calm     93% 0 mm 0.0 W/m2
02:50 9.5 °C 8.4 °C 1017.5 hPa Calm     93% 0 mm 0.0 W/m2
02:56 9.4 °C 8.3 °C 1017.5 hPa Calm     93% 0 mm 0.0 W/m2
03:03 9.4 °C 8.3 °C 1017.5 hPa Calm     93% 0 mm 0.0 W/m2
03:10 9.3 °C 8.2 °C 1017.5 hPa Calm     93% 0 mm 0.0 W/m2
03:16 9.4 °C 8.3 °C 1017.2 hPa Calm     93% 0 mm 0.0 W/m2
03:23 9.5 °C 8.6 °C 1017.5 hPa Calm     94% 0 mm 0.0 W/m2
03:30 9.6 °C 8.7 °C 1017.5 hPa Calm     94% 0 mm 0.0 W/m2
03:36 9.5 °C 8.4 °C 1017.5 hPa Calm     93% 0 mm 0.0 W/m2
03:43 9.6 °C 8.5 °C 1017.2 hPa Calm     93% 0 mm 0.0 W/m2
03:49 9.5 °C 8.4 °C 1016.8 hPa Calm     93% 0 mm 0.0 W/m2
03:56 9.4 °C 8.3 °C 1017.2 hPa Calm     93% 0 mm 0.0 W/m2
04:03 9.4 °C 8.3 °C 1016.8 hPa Calm     93% 0 mm 0.0 W/m2
04:09 9.3 °C 8.2 °C 1016.8 hPa Calm     93% 0 mm 0.0 W/m2
04:16 9.1 °C 7.9 °C 1017.2 hPa Calm     92% 0 mm 0.0 W/m2
04:22 8.8 °C 7.6 °C 1017.2 hPa Calm     92% 0 mm 0.0 W/m2
04:29 8.6 °C 7.4 °C 1017.2 hPa Calm     92% 0 mm 0.0 W/m2
04:35 8.6 °C 7.5 °C 1017.2 hPa Calm     93% 0 mm 0.0 W/m2
04:42 8.5 °C 7.4 °C 1017.5 hPa Calm     93% 0 mm 0.0 W/m2
04:49 8.6 °C 7.7 °C 1017.5 hPa Calm     94% 0 mm 0.0 W/m2
04:56 8.6 °C 7.7 °C 1017.5 hPa Calm     94% 0 mm 0.0 W/m2
05:02 8.7 °C 7.8 °C 1017.5 hPa Calm     94% 0 mm 0.0 W/m2
05:10 8.6 °C 7.7 °C 1017.5 hPa Calm     94% 0 mm 0.0 W/m2
05:17 8.7 °C 7.8 °C 1017.2 hPa Calm     94% 0 mm 0.0 W/m2
05:22 8.8 °C 7.9 °C 1017.2 hPa Calm     94% 0 mm 0.0 W/m2
05:29 8.9 °C 8 °C 1017.2 hPa Calm     94% 0 mm 0.0 W/m2
05:35 8.7 °C 7.8 °C 1017.5 hPa Calm     94% 0 mm 0.0 W/m2
05:42 8.6 °C 7.7 °C 1017.5 hPa Calm     94% 0 mm 0.0 W/m2
05:48 8.4 °C 7.5 °C 1017.5 hPa Calm     94% 0 mm 0.0 W/m2
05:55 8.4 °C 7.5 °C 1017.8 hPa Calm     94% 0 mm 0.0 W/m2
06:02 8.4 °C 7.5 °C 1017.8 hPa Calm     94% 0 mm 0.0 W/m2
06:08 8.2 °C 7.3 °C 1017.8 hPa Calm     94% 0 mm 0.0 W/m2
06:15 8.2 °C 7.3 °C 1017.8 hPa Calm     94% 0 mm 0.0 W/m2
06:21 8.2 °C 7.3 °C 1017.8 hPa Calm     94% 0 mm 0.0 W/m2
06:28 8 °C 7.1 °C 1018.2 hPa Calm     94% 0 mm 0.0 W/m2
06:34 8 °C 7.1 °C 1018.2 hPa Calm     94% 0 mm 0.0 W/m2
06:41 7.9 °C 7 °C 1018.2 hPa Calm     94% 0 mm 0.0 W/m2
06:48 7.8 °C 6.9 °C 1018.2 hPa Calm     94% 0 mm 0.0 W/m2
06:54 8.1 °C 7.3 °C 1018.5 hPa Calm     95% 0 mm 0.0 W/m2
07:01 8.1 °C 7.2 °C 1018.5 hPa Calm     94% 0 mm 0.0 W/m2
07:08 8.1 °C 7.2 °C 1018.5 hPa Calm     94% 0 mm 0.0 W/m2
07:14 8 °C 7.1 °C 1018.5 hPa Calm     94% 0 mm 0.0 W/m2
07:20 7.9 °C 7 °C 1018.5 hPa Calm     94% 0 mm 0.0 W/m2
07:27 7.9 °C 7 °C 1018.5 hPa Calm     94% 0 mm 5.0 W/m2
07:33 7.8 °C 6.9 °C 1018.8 hPa Calm   1.6 km/h 94% 0 mm 7.0 W/m2
07:39 7.8 °C 6.9 °C 1018.8 hPa Calm     94% 0 mm 11.0 W/m2
07:46 7.9 °C 7.1 °C 1018.8 hPa Calm     95% 0 mm 12.0 W/m2
07:52 8 °C 7.2 °C 1018.8 hPa Calm     95% 0 mm 14.0 W/m2
07:59 8.1 °C 7.3 °C 1018.8 hPa Calm     95% 0 mm 16.0 W/m2
08:05 8.2 °C 7.4 °C 1018.8 hPa Calm     95% 0 mm 18.0 W/m2
08:11 8.3 °C 7.5 °C 1018.8 hPa Calm     95% 0 mm 26.0 W/m2
08:18 8.6 °C 7.8 °C 1018.8 hPa Calm     95% 0 mm 107.0 W/m2
Canyon Roadhouse, Fishriver Canyon, Namibia
Compliments of Weather Underground - 2 mb